Time;durP1;ratioP1;P1;durP2;ratioP2;P2;SDS_P1;SDS_P2;PMS_P1;PMS_P2;Temp;Humidity;BMP_temperature;BMP_pressure;BME280_temperature;BME280_humidity;BME280_pressure;Samples;Min_cycle;Max_cycle;Signal;HPM_P1;HPM_P2
2023/02/18 00:01:24;;;;;;;59.60;34.13;;;;;;;0.72;100.00;93900.97;5062959;28;20122;-67
2023/02/18 00:03:52;;;;;;;65.78;34.30;;;;;;;0.63;100.00;93904.28;5052439;28;20045;-67
2023/02/18 00:06:22;;;;;;;86.13;49.13;;;;;;;0.55;100.00;93906.66;5066971;28;20049;-67
2023/02/18 00:08:50;;;;;;;76.53;44.05;;;;;;;0.51;100.00;93891.75;5065642;28;20041;-67
2023/02/18 00:11:18;;;;;;;81.03;43.17;;;;;;;0.48;100.00;93894.56;5063795;28;20045;-67
2023/02/18 00:13:50;;;;;;;72.80;40.67;;;;;;;0.45;100.00;93889.75;5058525;28;20082;-67
2023/02/18 00:16:17;;;;;;;78.53;44.05;;;;;;;0.26;100.00;93885.44;5063669;28;20129;-67
2023/02/18 00:18:43;;;;;;;69.32;35.88;;;;;;;0.27;100.00;93884.50;5065662;28;20044;-67
2023/02/18 00:21:11;;;;;;;64.78;34.22;;;;;;;0.22;100.00;93879.84;5069061;28;20044;-67
2023/02/18 00:23:38;;;;;;;56.90;31.23;;;;;;;0.25;100.00;93873.75;5068840;28;20044;-67
2023/02/18 00:26:07;;;;;;;59.63;33.38;;;;;;;0.15;100.00;93862.81;5058290;28;20496;-67
2023/02/18 00:28:34;;;;;;;41.38;23.27;;;;;;;0.29;100.00;93867.50;5065137;28;20099;-69
2023/02/18 00:31:07;;;;;;;33.47;20.00;;;;;;;0.31;100.00;93860.59;5068848;28;20045;-68
2023/02/18 00:33:33;;;;;;;37.17;19.73;;;;;;;0.36;100.00;93850.91;5068845;28;20045;-68
2023/02/18 00:36:02;;;;;;;26.63;17.77;;;;;;;0.39;100.00;93850.66;5068530;28;20137;-68
2023/02/18 00:38:30;;;;;;;25.45;16.27;;;;;;;0.44;100.00;93849.44;5068830;28;20059;-68
2023/02/18 00:40:57;;;;;;;27.58;17.02;;;;;;;0.51;100.00;93838.66;5066887;28;20040;-68
2023/02/18 00:43:24;;;;;;;26.92;17.38;;;;;;;0.55;100.00;93840.94;5068151;28;20090;-68
2023/02/18 00:45:51;;;;;;;29.85;19.00;;;;;;;0.62;100.00;93829.34;5068627;28;20048;-68
2023/02/18 00:48:17;;;;;;;29.02;18.95;;;;;;;0.66;100.00;93835.75;5068601;28;20094;-69
2023/02/18 00:50:44;;;;;;;32.75;22.50;;;;;;;0.68;100.00;93836.41;5068593;28;20409;-68
2023/02/18 00:53:11;;;;;;;27.75;16.10;;;;;;;0.66;100.00;93834.00;5068661;28;20044;-68
2023/02/18 00:55:41;;;;;;;27.83;17.00;;;;;;;0.43;100.00;93835.19;5068109;28;20087;-68
2023/02/18 00:58:07;;;;;;;30.67;17.60;;;;;;;0.25;100.00;93829.06;5068467;28;20048;-68
2023/02/18 01:00:34;;;;;;;25.85;14.85;;;;;;;0.18;100.00;93824.69;5068602;28;20443;-68
2023/02/18 01:03:01;;;;;;;22.80;13.45;;;;;;;0.14;100.00;93831.72;5068138;28;20037;-68
2023/02/18 01:05:28;;;;;;;22.85;14.25;;;;;;;0.14;100.00;93819.09;5068311;28;21518;-68
2023/02/18 01:07:55;;;;;;;24.70;14.35;;;;;;;0.18;100.00;93817.88;5062681;28;20489;-68
2023/02/18 01:10:22;;;;;;;22.60;12.50;;;;;;;0.19;100.00;93819.47;5068482;28;20045;-68
2023/02/18 01:12:50;;;;;;;24.23;13.93;;;;;;;-0.12;100.00;93774.09;5068029;28;20090;-69
2023/02/18 01:15:17;;;;;;;23.00;13.32;;;;;;;0.05;100.00;93825.69;5068318;28;20049;-68
2023/02/18 01:17:44;;;;;;;24.10;12.82;;;;;;;-0.05;100.00;93817.31;5068287;28;20045;-68
2023/02/18 01:20:12;;;;;;;20.38;12.43;;;;;;;-0.08;100.00;93822.63;5068357;28;20389;-68
2023/02/18 01:22:39;;;;;;;20.52;13.50;;;;;;;-0.01;100.00;93816.09;5067865;28;20090;-68
2023/02/18 01:25:07;;;;;;;23.40;13.68;;;;;;;0.03;100.00;93812.41;5063241;28;20048;-69
2023/02/18 01:27:33;;;;;;;23.92;14.65;;;;;;;0.07;100.00;93815.47;5068297;28;20090;-68
2023/02/18 01:30:02;;;;;;;36.20;22.15;;;;;;;-0.23;100.00;93817.91;5068106;28;20056;-68
2023/02/18 01:32:28;;;;;;;38.90;22.33;;;;;;;-0.11;100.00;93815.28;5068392;28;20045;-69
2023/02/18 01:34:55;;;;;;;32.80;20.42;;;;;;;-0.10;100.00;93819.44;5068293;28;20045;-68
2023/02/18 01:37:22;;;;;;;31.70;18.60;;;;;;;-0.09;100.00;93826.06;5067946;28;20091;-68
2023/02/18 01:39:48;;;;;;;35.13;20.65;;;;;;;-0.06;100.00;93825.81;5068226;28;20078;-69
2023/02/18 01:42:19;;;;;;;38.13;23.17;;;;;;;-0.17;100.00;93839.34;5067900;28;20445;-68
2023/02/18 01:44:48;;;;;;;39.47;22.42;;;;;;;-0.47;100.00;93839.22;5068179;28;20041;-68
2023/02/18 01:47:17;;;;;;;71.07;34.85;;;;;;;-0.59;100.00;93828.44;5068234;28;20045;-68
2023/02/18 01:49:47;;;;;;;183.43;71.93;;;;;;;-0.61;100.00;93834.53;5068010;28;20045;-68
2023/02/18 01:52:18;;;;;;;48.85;26.83;;;;;;;-1.21;100.00;93803.91;5067943;28;20530;-68
2023/02/18 01:54:49;;;;;;;53.40;31.80;;;;;;;-1.13;100.00;93831.03;5070428;28;20044;-68
2023/02/18 01:57:20;;;;;;;64.30;38.30;;;;;;;-1.36;100.00;93832.84;5071470;28;20049;-68
2023/02/18 01:59:52;;;;;;;81.60;44.58;;;;;;;-1.57;100.00;93845.44;5071453;28;20045;-68
2023/02/18 02:02:22;;;;;;;82.40;47.13;;;;;;;-1.71;100.00;93843.97;5071629;28;20443;-68
2023/02/18 02:04:50;;;;;;;101.95;58.42;;;;;;;-1.77;100.00;93840.19;5067138;28;20059;-68
2023/02/18 02:07:19;;;;;;;133.52;73.18;;;;;;;-1.91;100.00;93844.59;5071296;28;20044;-68
2023/02/18 02:09:50;;;;;;;167.35;88.60;;;;;;;-1.72;100.00;93854.97;5071297;28;20041;-68
2023/02/18 02:12:36;;;;;;;144.55;78.35;;;;;;;-1.83;100.00;93861.63;5071269;28;20052;-69
2023/02/18 02:15:25;;;;;;;131.02;72.35;;;;;;;-1.85;100.00;93858.41;5071560;28;20170;-68
2023/02/18 02:18:11;;;;;;;134.80;70.93;;;;;;;-1.80;100.00;93855.56;5068247;28;20381;-69
2023/02/18 02:21:20;;;;;;;133.00;72.10;;;;;;;-1.77;100.00;93851.09;5071298;28;20048;-69
2023/02/18 02:24:11;;;;;;;113.88;63.40;;;;;;;-1.67;100.00;93853.69;5071108;28;20045;-69
2023/02/18 02:27:06;;;;;;;123.65;64.57;;;;;;;-1.58;100.00;93847.13;5070978;28;20509;-69
2023/02/18 02:30:18;;;;;;;127.65;67.18;;;;;;;-1.48;100.00;93852.28;5071343;28;20037;-69
2023/02/18 02:33:38;;;;;;;115.95;60.22;;;;;;;-1.33;100.00;93851.97;5055789;28;20044;-68
2023/02/18 02:36:13;;;;;;;109.38;59.63;;;;;;;-1.19;100.00;93843.31;5071176;28;20044;-69
2023/02/18 02:38:52;;;;;;;108.32;59.38;;;;;;;-1.08;100.00;93838.22;5070745;28;20143;-68
2023/02/18 02:41:30;;;;;;;115.65;61.03;;;;;;;-1.15;100.00;93820.25;5071014;28;20393;-68
2023/02/18 02:44:07;;;;;;;105.60;58.30;;;;;;;-1.02;100.00;93844.50;5070948;28;20102;-68
2023/02/18 02:46:39;;;;;;;112.32;60.88;;;;;;;-1.05;100.00;93847.25;5071087;28;20417;-68
2023/02/18 02:49:18;;;;;;;123.78;64.80;;;;;;;-1.03;100.00;93841.19;5070871;28;20049;-68
2023/02/18 02:51:50;;;;;;;110.07;57.75;;;;;;;-0.93;100.00;93833.66;5070770;28;20041;-69
2023/02/18 02:54:20;;;;;;;113.00;58.95;;;;;;;-0.92;100.00;93826.91;5070620;28;20070;-68
2023/02/18 02:56:46;;;;;;;106.25;59.33;;;;;;;-1.02;100.00;93812.50;5070829;28;20045;-69
2023/02/18 02:59:18;;;;;;;115.63;59.95;;;;;;;-0.85;100.00;93835.56;5070823;28;20044;-69
2023/02/18 03:01:59;;;;;;;106.38;57.40;;;;;;;-0.84;100.00;93839.69;5070628;28;20049;-69
2023/02/18 03:04:55;;;;;;;102.15;60.50;;;;;;;-0.87;100.00;93837.44;5070702;28;20177;-69
2023/02/18 03:08:00;;;;;;;113.50;59.63;;;;;;;-0.84;100.00;93837.16;5067752;28;20041;-68
2023/02/18 03:10:42;;;;;;;99.55;57.60;;;;;;;-0.93;100.00;93826.09;5056545;28;20040;-68
2023/02/18 03:13:16;;;;;;;115.38;59.80;;;;;;;-0.87;100.00;93835.72;5070200;28;20087;-68
2023/02/18 03:15:50;;;;;;;112.20;59.67;;;;;;;-0.84;100.00;93840.50;5070299;28;20419;-68
2023/02/18 03:18:26;;;;;;;108.95;61.35;;;;;;;-1.02;100.00;93837.72;5070221;28;20052;-68
2023/02/18 03:20:58;;;;;;;112.35;60.15;;;;;;;-1.10;100.00;93840.06;5070412;28;20110;-68
2023/02/18 03:23:32;;;;;;;102.80;55.03;;;;;;;-1.18;100.00;93844.91;5070279;28;20044;-68
2023/02/18 03:26:00;;;;;;;73.45;39.42;;;;;;;-1.24;100.00;93844.47;5070245;28;20447;-68
2023/02/18 03:28:31;;;;;;;69.15;37.20;;;;;;;-1.38;100.00;93847.31;5069985;28;20040;-68
2023/02/18 03:31:01;;;;;;;67.15;38.55;;;;;;;-1.51;100.00;93849.97;5069980;28;20040;-68
2023/02/18 03:33:35;;;;;;;60.95;37.38;;;;;;;-1.86;100.00;93824.09;5070179;28;20048;-68
2023/02/18 03:36:02;;;;;;;65.47;36.28;;;;;;;-1.72;100.00;93834.81;5069926;28;20032;-68
2023/02/18 03:38:36;;;;;;;63.30;35.25;;;;;;;-1.69;100.00;93853.00;5069528;28;20048;-68
2023/02/18 03:41:04;;;;;;;60.83;35.30;;;;;;;-1.75;100.00;93866.88;5069558;28;20570;-68
2023/02/18 03:43:31;;;;;;;61.58;35.50;;;;;;;-1.71;100.00;93874.97;5069551;28;20496;-69
2023/02/18 03:45:58;;;;;;;57.63;35.13;;;;;;;-1.62;100.00;93881.84;5069375;28;20089;-69
2023/02/18 03:48:26;;;;;;;69.72;37.78;;;;;;;-1.69;100.00;93883.25;5069730;28;20041;-69
2023/02/18 03:50:52;;;;;;;68.40;38.78;;;;;;;-1.67;100.00;93878.09;5069743;28;20040;-69
2023/02/18 03:53:19;;;;;;;73.47;39.63;;;;;;;-1.68;100.00;93876.47;5069374;28;20497;-68
2023/02/18 03:55:47;;;;;;;91.63;47.85;;;;;;;-1.84;100.00;93880.19;5064218;28;20098;-68
2023/02/18 03:58:14;;;;;;;93.28;48.70;;;;;;;-1.93;100.00;93888.44;5069560;28;20053;-69
2023/02/18 04:00:40;;;;;;;87.80;49.90;;;;;;;-2.00;100.00;93887.31;5069525;28;20150;-69
2023/02/18 04:03:07;;;;;;;95.65;51.47;;;;;;;-2.11;100.00;93893.94;5069332;28;20044;-69
2023/02/18 04:05:34;;;;;;;100.13;53.58;;;;;;;-2.19;100.00;93896.22;5069426;28;20504;-68
2023/02/18 04:08:01;;;;;;;96.18;55.20;;;;;;;-2.10;100.00;93889.69;5069204;28;20543;-68
2023/02/18 04:10:28;;;;;;;99.43;53.35;;;;;;;-2.25;100.00;93891.63;5069366;28;20049;-69
2023/02/18 04:12:56;;;;;;;100.85;52.33;;;;;;;-2.17;100.00;93885.13;5069331;28;20082;-69
2023/02/18 04:15:23;;;;;;;86.07;49.13;;;;;;;-2.05;100.00;93880.88;5069178;28;20090;-69
2023/02/18 04:17:49;;;;;;;86.82;48.58;;;;;;;-1.98;100.00;93878.72;5068057;28;20037;-69
2023/02/18 04:20:16;;;;;;;88.88;48.13;;;;;;;-1.89;100.00;93870.44;5068795;28;20500;-69
2023/02/18 04:22:43;;;;;;;83.32;47.22;;;;;;;-1.80;100.00;93873.19;5068767;28;20040;-69
2023/02/18 04:25:09;;;;;;;88.00;49.78;;;;;;;-1.92;100.00;93875.72;5068788;28;20062;-69
2023/02/18 04:27:36;;;;;;;81.43;48.63;;;;;;;-1.99;100.00;93872.06;5064356;28;20048;-69
2023/02/18 04:30:05;;;;;;;91.35;51.03;;;;;;;-2.03;100.00;93876.53;5066384;28;20040;-69
2023/02/18 04:32:32;;;;;;;101.60;53.00;;;;;;;-2.11;100.00;93876.31;5068801;28;20044;-69
2023/02/18 04:34:59;;;;;;;99.55;57.70;;;;;;;-2.10;100.00;93879.63;5068878;28;20048;-69
2023/02/18 04:37:25;;;;;;;94.88;52.75;;;;;;;-2.03;100.00;93868.19;5068101;28;20048;-69
2023/02/18 04:39:52;;;;;;;96.28;54.33;;;;;;;-1.96;100.00;93864.28;5068530;28;20098;-69
2023/02/18 04:42:19;;;;;;;81.88;50.55;;;;;;;-2.05;100.00;93817.13;5068302;28;20932;-69
2023/02/18 04:44:46;;;;;;;94.40;51.90;;;;;;;-1.71;100.00;93859.88;5068583;28;20044;-69
2023/02/18 04:47:14;;;;;;;87.80;48.85;;;;;;;-1.73;100.00;93854.16;5069005;28;20122;-69
2023/02/18 04:49:41;;;;;;;89.25;47.33;;;;;;;-1.93;100.00;93870.81;5068623;28;20044;-70
2023/02/18 04:52:08;;;;;;;85.60;46.33;;;;;;;-2.11;100.00;93852.84;5068816;28;20082;-69
2023/02/18 04:54:34;;;;;;;85.03;45.97;;;;;;;-2.00;100.00;93872.19;5059262;28;20044;-70
2023/02/18 04:57:01;;;;;;;76.60;44.47;;;;;;;-1.94;100.00;93862.44;5067241;28;20493;-70
2023/02/18 04:59:28;;;;;;;74.35;42.72;;;;;;;-1.86;100.00;93866.09;5068947;28;20049;-69
2023/02/18 05:01:54;;;;;;;76.25;41.38;;;;;;;-1.73;100.00;93855.91;5068785;28;20090;-69
2023/02/18 05:04:23;;;;;;;71.45;42.42;;;;;;;-1.73;100.00;93841.56;5069082;28;20113;-70
2023/02/18 05:06:49;;;;;;;73.80;43.47;;;;;;;-1.54;100.00;93863.63;5042817;28;20118;-70
2023/02/18 05:09:16;;;;;;;79.45;45.85;;;;;;;-1.53;100.00;93854.34;5065461;28;20094;-69
2023/02/18 05:11:43;;;;;;;79.18;45.35;;;;;;;-1.42;100.00;93866.09;5067396;28;20048;-69
2023/02/18 05:14:11;;;;;;;87.10;49.50;;;;;;;-1.40;100.00;93859.22;5063869;28;20045;-70
2023/02/18 05:16:37;;;;;;;102.63;53.85;;;;;;;-1.37;100.00;93866.53;5059978;28;20495;-70
2023/02/18 05:19:04;;;;;;;89.55;50.88;;;;;;;-1.33;100.00;93869.63;5067941;28;20130;-72
2023/02/18 05:21:33;;;;;;;101.60;55.03;;;;;;;-1.47;100.00;93861.44;5068553;28;20152;-72
2023/02/18 05:24:07;;;;;;;107.47;59.85;;;;;;;-1.63;100.00;93879.44;5067859;28;20135;-71
2023/02/18 05:26:34;;;;;;;83.07;49.58;;;;;;;-1.61;100.00;93868.31;5067599;28;20084;-71
2023/02/18 05:29:01;;;;;;;91.75;50.70;;;;;;;-1.51;100.00;93870.13;5057402;28;20090;-71
2023/02/18 05:31:28;;;;;;;87.60;50.47;;;;;;;-1.45;100.00;93872.19;5052935;28;20098;-71
2023/02/18 05:33:54;;;;;;;96.35;51.35;;;;;;;-1.40;100.00;93872.63;5059067;28;20405;-71
2023/02/18 05:36:21;;;;;;;91.32;53.33;;;;;;;-1.39;100.00;93873.44;5063404;28;20099;-71
2023/02/18 05:38:49;;;;;;;89.68;52.63;;;;;;;-1.37;100.00;93864.03;5071424;28;20048;-71
2023/02/18 05:41:16;;;;;;;100.45;59.50;;;;;;;-1.30;100.00;93861.81;5072254;28;20044;-70
2023/02/18 05:46:27;;;;;;;74.45;44.78;;;;;;;-1.22;100.00;93859.50;5064067;28;20059;-71
2023/02/18 05:48:54;;;;;;;70.90;43.30;;;;;;;-1.20;100.00;93862.72;5072377;28;20048;-70
2023/02/18 05:51:20;;;;;;;74.43;41.80;;;;;;;-1.16;100.00;93863.25;5069532;28;20052;-71
2023/02/18 05:53:48;;;;;;;64.80;36.78;;;;;;;-1.38;100.00;93864.94;5061907;28;20049;-71
2023/02/18 05:56:15;;;;;;;64.78;37.60;;;;;;;-1.56;100.00;93860.44;5071846;28;20041;-71
2023/02/18 05:58:42;;;;;;;70.75;41.33;;;;;;;-1.56;100.00;93867.16;5072212;28;20482;-71
2023/02/18 06:01:08;;;;;;;94.75;54.97;;;;;;;-1.63;100.00;93865.13;5066801;28;20041;-71
2023/02/18 06:03:51;;;;;;;91.50;51.38;;;;;;;-1.56;100.00;93872.22;5071318;28;20090;-70
2023/02/18 06:06:18;;;;;;;90.35;58.42;;;;;;;-1.70;100.00;93871.56;5071760;28;20098;-70
2023/02/18 06:08:44;;;;;;;95.68;63.45;;;;;;;-1.80;100.00;93868.16;5072242;28;20049;-71
2023/02/18 06:11:13;;;;;;;83.65;52.75;;;;;;;-1.75;100.00;93892.06;5071571;28;20550;-71
2023/02/18 06:13:39;;;;;;;236.15;103.13;;;;;;;-1.74;100.00;93895.38;5071413;28;20044;-71
2023/02/18 06:16:06;;;;;;;110.22;58.58;;;;;;;-1.85;100.00;93882.81;5071766;28;20322;-71
2023/02/18 06:18:33;;;;;;;130.75;67.45;;;;;;;-1.51;100.00;93891.09;5071955;28;20462;-71
2023/02/18 06:21:20;;;;;;;106.90;58.30;;;;;;;-1.36;100.00;93871.47;5071379;28;20090;-70
2023/02/18 06:23:47;;;;;;;89.55;50.75;;;;;;;-1.07;100.00;93885.19;5068477;28;20114;-70
2023/02/18 06:26:15;;;;;;;78.90;44.65;;;;;;;-1.53;100.00;93856.88;5068874;28;20090;-71
2023/02/18 06:28:42;;;;;;;77.85;44.25;;;;;;;-1.41;100.00;93893.72;5070797;28;20044;-71
2023/02/18 06:31:09;;;;;;;79.03;46.08;;;;;;;-1.47;100.00;93891.66;5070991;28;20040;-70
2023/02/18 06:33:36;;;;;;;76.47;43.38;;;;;;;-1.37;100.00;93889.22;5071475;28;20496;-70
2023/02/18 06:36:05;;;;;;;79.85;45.85;;;;;;;-1.45;100.00;93881.47;5058089;28;20057;-71
2023/02/18 06:38:32;;;;;;;90.15;48.83;;;;;;;-1.50;100.00;93880.09;5043819;28;20084;-70
2023/02/18 06:40:59;;;;;;;78.85;45.40;;;;;;;-1.45;100.00;93884.00;5070294;28;20048;-70
2023/02/18 06:43:28;;;;;;;82.47;47.88;;;;;;;-1.33;100.00;93884.75;5071546;28;20044;-70
2023/02/18 06:45:54;;;;;;;83.78;46.83;;;;;;;-1.35;100.00;93883.16;5069854;28;20075;-70
2023/02/18 06:48:21;;;;;;;86.22;47.80;;;;;;;-1.22;100.00;93882.19;5059281;28;20052;-70
2023/02/18 06:50:49;;;;;;;88.50;48.30;;;;;;;-1.17;100.00;93890.19;5070355;28;20447;-70
2023/02/18 06:53:16;;;;;;;94.43;50.00;;;;;;;-1.39;100.00;93853.28;5071046;28;20186;-68
2023/02/18 06:55:44;;;;;;;87.13;50.10;;;;;;;-1.20;100.00;93880.34;5070512;28;20110;-68
2023/02/18 06:58:12;;;;;;;92.53;53.03;;;;;;;-1.09;100.00;93890.38;5070931;28;20580;-68
2023/02/18 07:00:41;;;;;;;96.13;49.38;;;;;;;-1.16;100.00;93875.88;5069354;28;20052;-70
2023/02/18 07:03:08;;;;;;;93.82;52.85;;;;;;;-1.00;100.00;93898.94;5068147;28;20071;-70
2023/02/18 07:05:35;;;;;;;90.65;52.00;;;;;;;-1.10;100.00;93900.59;5070684;28;20090;-69
2023/02/18 07:08:02;;;;;;;109.68;56.40;;;;;;;-1.09;100.00;93904.72;5070906;28;20048;-69
2023/02/18 07:10:28;;;;;;;118.82;59.60;;;;;;;-1.00;100.00;93898.13;5070609;28;20411;-69
2023/02/18 07:12:55;;;;;;;113.32;56.20;;;;;;;-0.95;100.00;93901.09;5070400;28;20049;-69
2023/02/18 07:15:23;;;;;;;90.00;50.60;;;;;;;-1.10;100.00;93866.06;5070766;28;20041;-69
2023/02/18 07:17:51;;;;;;;100.72;58.35;;;;;;;-0.50;100.00;93895.00;5070750;28;20098;-69
2023/02/18 07:20:18;;;;;;;98.40;57.85;;;;;;;-0.25;100.00;93894.72;5069679;28;20040;-69
2023/02/18 07:22:45;;;;;;;101.70;57.42;;;;;;;-0.06;100.00;93891.47;5070327;28;20071;-69
2023/02/18 07:25:12;;;;;;;83.65;49.20;;;;;;;0.06;100.00;93885.41;5070024;28;20044;-69
2023/02/18 07:27:39;;;;;;;85.00;49.38;;;;;;;0.14;100.00;93894.88;5070413;28;20044;-69
2023/02/18 07:30:07;;;;;;;81.35;47.15;;;;;;;0.29;100.00;93884.38;5060147;28;20095;-69
2023/02/18 07:32:34;;;;;;;81.60;47.35;;;;;;;0.23;100.00;93861.25;5069992;28;20048;-69
2023/02/18 07:35:03;;;;;;;81.90;45.55;;;;;;;0.54;100.00;93870.47;5069891;28;20653;-69
2023/02/18 07:37:31;;;;;;;70.50;44.33;;;;;;;0.65;100.00;93847.59;5053761;28;20110;-69
2023/02/18 07:39:58;;;;;;;75.18;43.65;;;;;;;0.91;100.00;93874.88;5069879;28;20101;-69
2023/02/18 07:42:25;;;;;;;68.18;41.17;;;;;;;0.98;100.00;93877.69;5069880;28;20102;-68
2023/02/18 07:44:52;;;;;;;65.30;39.85;;;;;;;0.85;100.00;93875.41;5070019;28;20505;-68
2023/02/18 07:47:19;;;;;;;71.05;39.33;;;;;;;0.63;100.00;93872.22;5069938;28;20045;-68
2023/02/18 07:49:46;;;;;;;76.30;45.80;;;;;;;0.55;100.00;93871.28;5069979;28;20041;-69
2023/02/18 07:52:15;;;;;;;81.10;51.55;;;;;;;0.36;100.00;93875.34;5069211;28;20064;-68
2023/02/18 07:54:42;;;;;;;76.53;44.75;;;;;;;0.59;100.00;93873.41;5070044;28;20044;-68
2023/02/18 07:57:09;;;;;;;99.43;49.65;;;;;;;0.51;100.00;93874.06;5069774;28;20041;-68
2023/02/18 07:59:36;;;;;;;88.30;51.10;;;;;;;0.76;100.00;93877.03;5068747;28;20335;-68
2023/02/18 08:02:04;;;;;;;98.53;53.30;;;;;;;0.92;100.00;93879.00;5065550;28;20505;-68
2023/02/18 08:04:30;;;;;;;97.70;57.10;;;;;;;1.09;100.00;93876.72;5070068;28;20045;-68
2023/02/18 08:06:57;;;;;;;108.82;55.13;;;;;;;1.23;100.00;93862.06;5069448;28;20044;-68
2023/02/18 08:09:25;;;;;;;99.57;49.47;;;;;;;1.35;100.00;93865.25;5066647;28;20591;-68
2023/02/18 08:11:52;;;;;;;114.80;52.55;;;;;;;1.59;100.00;93868.09;5067504;28;20049;-68
2023/02/18 08:14:19;;;;;;;113.57;54.15;;;;;;;1.78;100.00;93865.63;5059785;28;20087;-68
2023/02/18 08:16:45;;;;;;;107.63;51.70;;;;;;;1.89;100.00;93868.00;5065937;28;20060;-68
2023/02/18 08:19:12;;;;;;;93.47;49.78;;;;;;;1.86;100.00;93870.81;5069258;28;20094;-68
2023/02/18 08:21:39;;;;;;;93.80;51.45;;;;;;;1.94;100.00;93870.13;5066025;28;20642;-68
2023/02/18 08:24:07;;;;;;;92.75;49.90;;;;;;;2.14;100.00;93861.47;5059590;28;20149;-68
2023/02/18 08:26:35;;;;;;;85.55;46.33;;;;;;;2.21;100.00;93851.56;5069423;28;20045;-68
2023/02/18 08:29:02;;;;;;;131.52;69.85;;;;;;;2.40;100.00;93865.06;5069511;28;20044;-68
2023/02/18 08:31:30;;;;;;;118.03;59.88;;;;;;;2.51;100.00;93866.63;5069369;28;20044;-68
2023/02/18 08:33:59;;;;;;;95.40;51.08;;;;;;;2.51;100.00;93862.34;5069013;28;20049;-68
2023/02/18 08:36:26;;;;;;;101.25;53.00;;;;;;;2.66;100.00;93869.44;5056967;28;20045;-68
2023/02/18 08:38:53;;;;;;;84.78;45.20;;;;;;;2.64;100.00;93868.81;5068994;28;20098;-68
2023/02/18 08:41:19;;;;;;;99.32;50.67;;;;;;;2.77;100.00;93864.16;5055654;28;20134;-68
2023/02/18 08:43:48;;;;;;;87.60;49.88;;;;;;;2.89;100.00;93872.38;5069416;28;20048;-68
2023/02/18 08:46:16;;;;;;;92.40;49.25;;;;;;;3.00;100.00;93870.53;5069018;28;20542;-68
2023/02/18 08:48:42;;;;;;;99.80;52.75;;;;;;;3.23;100.00;93860.72;5069160;28;20185;-68
2023/02/18 08:51:14;;;;;;;111.90;56.03;;;;;;;3.35;100.00;93848.56;5069127;28;20044;-68
2023/02/18 08:53:40;;;;;;;123.80;68.13;;;;;;;3.39;100.00;93856.69;5068724;28;20529;-68
2023/02/18 08:56:09;;;;;;;92.50;50.58;;;;;;;3.56;100.00;93867.75;5068832;28;20040;-68
2023/02/18 08:58:36;;;;;;;95.10;51.40;;;;;;;3.68;100.00;93879.25;5068842;28;20078;-68
2023/02/18 09:01:07;;;;;;;89.53;48.70;;;;;;;3.79;100.00;93867.25;5063395;28;20139;-69
2023/02/18 09:03:33;;;;;;;95.13;49.28;;;;;;;3.92;100.00;93851.56;5068601;28;20049;-69
2023/02/18 09:06:01;;;;;;;105.03;51.95;;;;;;;3.98;100.00;93841.59;5068530;28;20056;-68
2023/02/18 09:08:28;;;;;;;87.63;47.15;;;;;;;4.14;100.00;93843.41;5068527;28;20041;-68
2023/02/18 09:10:56;;;;;;;88.78;46.00;;;;;;;4.38;100.00;93848.69;5068499;28;20493;-68
2023/02/18 09:13:23;;;;;;;96.93;47.00;;;;;;;4.50;100.00;93852.53;5068639;28;20045;-68
2023/02/18 09:15:57;;;;;;;99.82;50.88;;;;;;;4.64;100.00;93850.34;5068504;28;20090;-68
2023/02/18 09:18:25;;;;;;;116.75;60.88;;;;;;;4.78;100.00;93852.25;5068598;28;20386;-68
2023/02/18 09:20:55;;;;;;;113.50;53.10;;;;;;;4.94;100.00;93854.03;5068230;28;20489;-68
2023/02/18 09:23:21;;;;;;;99.50;49.28;;;;;;;5.12;100.00;93852.28;5068850;28;20401;-68
2023/02/18 09:25:48;;;;;;;100.65;45.47;;;;;;;5.28;100.00;93859.91;5068645;28;20534;-68
2023/02/18 09:28:15;;;;;;;181.13;77.30;;;;;;;5.57;100.00;93858.63;5066625;28;20044;-68
2023/02/18 09:30:42;;;;;;;73.63;31.23;;;;;;;5.91;89.29;93863.59;5060861;28;20501;-68
2023/02/18 09:33:08;;;;;;;52.25;22.95;;;;;;;6.19;87.15;93858.09;5051562;28;20050;-68
2023/02/18 09:35:40;;;;;;;20.50;7.38;;;;;;;6.65;73.81;93859.97;5048649;28;20501;-68
2023/02/18 09:38:08;;;;;;;20.38;7.88;;;;;;;6.89;74.92;93840.34;5062691;28;20060;-68
2023/02/18 09:40:37;;;;;;;24.60;10.00;;;;;;;7.19;73.62;93842.97;5057364;28;20394;-68
2023/02/18 09:43:04;;;;;;;24.67;9.55;;;;;;;7.54;72.97;93850.97;5056560;28;20470;-69
2023/02/18 09:45:31;;;;;;;101.68;37.38;;;;;;;7.82;69.61;93852.16;5041700;28;20456;-68
2023/02/18 09:47:59;;;;;;;18.35;6.40;;;;;;;8.05;64.81;93857.16;5063757;28;20048;-68
2023/02/18 09:50:28;;;;;;;38.67;16.15;;;;;;;8.32;63.56;93854.91;5042928;28;20041;-68
2023/02/18 09:52:58;;;;;;;41.08;14.60;;;;;;;8.66;62.60;93840.75;5061301;28;20097;-68
2023/02/18 09:55:31;;;;;;;25.02;8.55;;;;;;;8.85;61.13;93828.31;5064820;28;20084;-68
2023/02/18 09:58:02;;;;;;;10.65;5.22;;;;;;;9.12;58.25;93827.75;5060818;28;20040;-68
2023/02/18 10:00:33;;;;;;;18.20;7.78;;;;;;;9.18;59.04;93824.44;5046981;28;20056;-68
2023/02/18 10:03:05;;;;;;;10.68;6.20;;;;;;;9.11;58.01;93809.00;5053923;28;20041;-70
2023/02/18 10:05:33;;;;;;;11.68;5.25;;;;;;;9.31;58.30;93818.63;5048529;28;20429;-69
2023/02/18 10:08:04;;;;;;;22.92;9.40;;;;;;;9.52;58.76;93807.53;5049571;28;20390;-69
2023/02/18 10:10:39;;;;;;;38.58;14.60;;;;;;;9.73;58.40;93805.88;5056368;28;20107;-69
2023/02/18 10:13:13;;;;;;;33.17;12.07;;;;;;;10.03;57.10;93796.16;5040485;28;20106;-69
2023/02/18 10:15:41;;;;;;;14.30;6.05;;;;;;;10.25;55.89;93787.53;5063387;28;20044;-69
2023/02/18 10:18:24;;;;;;;88.63;30.38;;;;;;;10.37;52.42;93791.09;5063571;28;20052;-69
2023/02/18 10:20:52;;;;;;;23.77;8.15;;;;;;;10.55;53.31;93794.94;5057057;28;20455;-69
2023/02/18 10:23:21;;;;;;;48.03;14.48;;;;;;;10.75;53.26;93782.13;5054332;28;20457;-69
2023/02/18 10:25:50;;;;;;;19.95;8.35;;;;;;;11.00;52.67;93776.41;5049543;28;20101;-70
2023/02/18 10:28:21;;;;;;;11.30;4.72;;;;;;;11.14;50.37;93778.97;5047645;28;20053;-69
2023/02/18 10:30:55;;;;;;;14.90;6.93;;;;;;;11.08;51.19;93778.00;5047258;28;20195;-69
2023/02/18 10:33:33;;;;;;;12.80;5.28;;;;;;;11.10;51.56;93781.13;5064263;28;20049;-69
2023/02/18 10:36:11;;;;;;;36.70;21.33;;;;;;;11.05;50.65;93762.94;5062720;28;20044;-69
2023/02/18 10:38:49;;;;;;;12.20;5.70;;;;;;;11.14;50.14;93776.38;5069502;28;20064;-69
2023/02/18 10:41:22;;;;;;;20.13;9.23;;;;;;;11.27;50.46;93773.81;5071246;28;20411;-69
2023/02/18 10:43:59;;;;;;;96.55;39.75;;;;;;;11.42;49.31;93770.22;5070522;28;20417;-69
2023/02/18 10:46:34;;;;;;;108.80;40.22;;;;;;;11.63;51.25;93767.41;5064152;28;20448;-71
2023/02/18 10:49:15;;;;;;;167.40;60.55;;;;;;;11.94;48.79;93759.22;5068611;28;20041;-71
2023/02/18 10:51:48;;;;;;;258.85;92.22;;;;;;;12.20;48.87;93755.75;5070789;28;20048;-71
2023/02/18 10:54:16;;;;;;;493.83;192.15;;;;;;;12.38;46.98;93757.66;5069426;28;20098;-71
2023/02/18 10:56:48;;;;;;;114.93;37.70;;;;;;;12.51;45.98;93746.47;5071201;28;20090;-72
2023/02/18 10:59:20;;;;;;;104.57;36.40;;;;;;;12.67;45.27;93744.38;5071034;28;20497;-71
2023/02/18 11:01:55;;;;;;;9.68;4.03;;;;;;;12.63;44.76;93738.09;5052463;28;20045;-70
2023/02/18 11:04:33;;;;;;;12.63;4.00;;;;;;;12.73;47.16;93737.63;5050028;28;20409;-71
2023/02/18 11:07:05;;;;;;;47.03;15.98;;;;;;;12.79;47.72;93729.03;5058851;28;20872;-70
2023/02/18 11:09:40;;;;;;;9.73;3.65;;;;;;;12.90;45.70;93737.88;5069526;28;20044;-70
2023/02/18 11:12:15;;;;;;;8.43;3.88;;;;;;;12.99;45.12;93741.78;5070179;28;20041;-70
2023/02/18 11:14:44;;;;;;;106.00;32.10;;;;;;;13.19;46.21;93730.50;5069738;28;20178;-71
2023/02/18 11:17:21;;;;;;;17.98;6.82;;;;;;;13.28;45.27;93728.44;5070200;28;20045;-71
2023/02/18 11:19:53;;;;;;;19.00;7.07;;;;;;;13.06;45.69;93690.91;5045241;28;20084;-70
2023/02/18 11:22:23;;;;;;;34.95;11.38;;;;;;;13.30;42.51;93722.06;5063188;28;20103;-70
2023/02/18 11:24:54;;;;;;;73.80;20.42;;;;;;;13.35;44.58;93724.78;5069356;28;20098;-70
2023/02/18 11:27:25;;;;;;;32.08;9.57;;;;;;;13.39;43.85;93720.00;5068674;28;20901;-71